sensor_id;sensor_type;location;lat;lon;timestamp;pressure;altitude;pressure_sealevel;temperature;humidity
50011;BME280;35899;50.352;19.390;2023-03-18T00:00:59;97971.90;;;0.62;59.26
50011;BME280;35899;50.352;19.390;2023-03-18T00:03:25;97973.25;;;0.62;59.44
50011;BME280;35899;50.352;19.390;2023-03-18T00:05:52;97976.30;;;0.62;59.42
50011;BME280;35899;50.352;19.390;2023-03-18T00:08:27;97974.60;;;0.62;59.50
50011;BME280;35899;50.352;19.390;2023-03-18T00:10:53;97970.38;;;0.62;59.76
50011;BME280;35899;50.352;19.390;2023-03-18T00:13:19;97975.16;;;0.61;59.98
50011;BME280;35899;50.352;19.390;2023-03-18T00:15:46;97977.93;;;0.59;60.06
50011;BME280;35899;50.352;19.390;2023-03-18T00:18:15;97976.82;;;0.56;59.90
50011;BME280;35899;50.352;19.390;2023-03-18T00:20:41;97976.17;;;0.55;60.01
50011;BME280;35899;50.352;19.390;2023-03-18T00:23:08;97973.79;;;0.55;59.96
50011;BME280;35899;50.352;19.390;2023-03-18T00:25:34;97976.52;;;0.54;60.20
50011;BME280;35899;50.352;19.390;2023-03-18T00:28:02;97975.34;;;0.54;60.17
50011;BME280;35899;50.352;19.390;2023-03-18T00:30:28;97972.27;;;0.54;60.16
50011;BME280;35899;50.352;19.390;2023-03-18T00:32:55;97972.45;;;0.54;60.13
50011;BME280;35899;50.352;19.390;2023-03-18T00:35:21;97971.06;;;0.55;60.09
50011;BME280;35899;50.352;19.390;2023-03-18T00:37:48;97963.89;;;0.56;60.22
50011;BME280;35899;50.352;19.390;2023-03-18T00:40:15;97964.60;;;0.55;60.12
50011;BME280;35899;50.352;19.390;2023-03-18T00:42:42;97959.48;;;0.55;60.33
50011;BME280;35899;50.352;19.390;2023-03-18T00:45:10;97956.27;;;0.54;60.31
50011;BME280;35899;50.352;19.390;2023-03-18T00:47:36;97952.89;;;0.54;60.32
50011;BME280;35899;50.352;19.390;2023-03-18T00:50:04;97952.08;;;0.52;60.50
50011;BME280;35899;50.352;19.390;2023-03-18T00:52:31;97947.52;;;0.51;60.73
50011;BME280;35899;50.352;19.390;2023-03-18T00:54:58;97942.14;;;0.49;60.72
50011;BME280;35899;50.352;19.390;2023-03-18T00:57:25;97943.38;;;0.47;60.96
50011;BME280;35899;50.352;19.390;2023-03-18T00:59:51;97944.92;;;0.46;61.10
50011;BME280;35899;50.352;19.390;2023-03-18T01:02:18;97944.17;;;0.43;60.85
50011;BME280;35899;50.352;19.390;2023-03-18T01:04:45;97943.23;;;0.40;60.87
50011;BME280;35899;50.352;19.390;2023-03-18T01:07:11;97938.50;;;0.38;60.95
50011;BME280;35899;50.352;19.390;2023-03-18T01:09:38;97935.29;;;0.38;61.35
50011;BME280;35899;50.352;19.390;2023-03-18T01:12:04;97934.62;;;0.38;61.28
50011;BME280;35899;50.352;19.390;2023-03-18T01:14:31;97931.92;;;0.37;61.41
50011;BME280;35899;50.352;19.390;2023-03-18T01:16:57;97930.75;;;0.36;61.36
50011;BME280;35899;50.352;19.390;2023-03-18T01:19:23;97923.94;;;0.36;61.64
50011;BME280;35899;50.352;19.390;2023-03-18T01:21:50;97920.71;;;0.36;61.76
50011;BME280;35899;50.352;19.390;2023-03-18T01:24:17;97917.66;;;0.36;61.97
50011;BME280;35899;50.352;19.390;2023-03-18T01:26:43;97915.84;;;0.34;61.86
50011;BME280;35899;50.352;19.390;2023-03-18T01:29:09;97917.20;;;0.34;62.20
50011;BME280;35899;50.352;19.390;2023-03-18T01:31:36;97916.53;;;0.33;62.38
50011;BME280;35899;50.352;19.390;2023-03-18T01:34:05;97909.26;;;0.32;62.19
50011;BME280;35899;50.352;19.390;2023-03-18T01:36:41;97912.52;;;0.31;62.42
50011;BME280;35899;50.352;19.390;2023-03-18T01:39:08;97909.64;;;0.31;62.61
50011;BME280;35899;50.352;19.390;2023-03-18T01:41:35;97909.66;;;0.30;62.86
50011;BME280;35899;50.352;19.390;2023-03-18T01:44:01;97911.39;;;0.28;62.66
50011;BME280;35899;50.352;19.390;2023-03-18T01:46:39;97909.20;;;0.28;62.53
50011;BME280;35899;50.352;19.390;2023-03-18T01:49:10;97911.38;;;0.29;62.78
50011;BME280;35899;50.352;19.390;2023-03-18T01:51:39;97907.45;;;0.29;62.93
50011;BME280;35899;50.352;19.390;2023-03-18T01:54:07;97905.45;;;0.29;63.08
50011;BME280;35899;50.352;19.390;2023-03-18T01:56:34;97908.04;;;0.27;63.12
50011;BME280;35899;50.352;19.390;2023-03-18T01:59:02;97907.07;;;0.25;63.19
50011;BME280;35899;50.352;19.390;2023-03-18T02:01:31;97906.42;;;0.24;63.27
50011;BME280;35899;50.352;19.390;2023-03-18T02:04:01;97906.85;;;0.21;63.12
50011;BME280;35899;50.352;19.390;2023-03-18T02:06:29;97901.69;;;0.17;63.17
50011;BME280;35899;50.352;19.390;2023-03-18T02:08:59;97903.59;;;0.10;63.32
50011;BME280;35899;50.352;19.390;2023-03-18T02:11:25;97903.09;;;0.04;63.47
50011;BME280;35899;50.352;19.390;2023-03-18T02:13:54;97899.63;;;-0.00;63.42
50011;BME280;35899;50.352;19.390;2023-03-18T02:16:22;97899.70;;;-0.03;63.43
50011;BME280;35899;50.352;19.390;2023-03-18T02:18:54;97899.23;;;-0.05;63.42
50011;BME280;35899;50.352;19.390;2023-03-18T02:23:59;97899.14;;;-0.08;63.55
50011;BME280;35899;50.352;19.390;2023-03-18T02:29:00;97894.17;;;-0.12;63.61
50011;BME280;35899;50.352;19.390;2023-03-18T02:31:35;97893.41;;;-0.15;63.68
50011;BME280;35899;50.352;19.390;2023-03-18T02:34:01;97894.50;;;-0.18;63.59
50011;BME280;35899;50.352;19.390;2023-03-18T02:36:30;97893.54;;;-0.20;63.86
50011;BME280;35899;50.352;19.390;2023-03-18T02:38:58;97893.08;;;-0.23;64.20
50011;BME280;35899;50.352;19.390;2023-03-18T02:41:26;97893.68;;;-0.25;64.15
50011;BME280;35899;50.352;19.390;2023-03-18T02:43:52;97893.42;;;-0.28;64.51
50011;BME280;35899;50.352;19.390;2023-03-18T02:46:27;97888.22;;;-0.30;64.63
50011;BME280;35899;50.352;19.390;2023-03-18T02:48:54;97887.26;;;-0.33;64.54
50011;BME280;35899;50.352;19.390;2023-03-18T02:51:21;97891.29;;;-0.37;64.58
50011;BME280;35899;50.352;19.390;2023-03-18T02:53:48;97891.23;;;-0.42;64.90
50011;BME280;35899;50.352;19.390;2023-03-18T02:56:14;97888.58;;;-0.45;65.14
50011;BME280;35899;50.352;19.390;2023-03-18T02:58:41;97889.73;;;-0.49;65.04
50011;BME280;35899;50.352;19.390;2023-03-18T03:01:07;97891.70;;;-0.53;65.11
50011;BME280;35899;50.352;19.390;2023-03-18T03:03:34;97888.27;;;-0.59;65.22
50011;BME280;35899;50.352;19.390;2023-03-18T03:06:02;97885.97;;;-0.62;65.33
50011;BME280;35899;50.352;19.390;2023-03-18T03:08:29;97887.04;;;-0.64;65.46
50011;BME280;35899;50.352;19.390;2023-03-18T03:10:55;97888.11;;;-0.66;65.47
50011;BME280;35899;50.352;19.390;2023-03-18T03:13:22;97887.30;;;-0.67;65.64
50011;BME280;35899;50.352;19.390;2023-03-18T03:15:50;97888.66;;;-0.68;65.69
50011;BME280;35899;50.352;19.390;2023-03-18T03:18:17;97890.36;;;-0.67;66.11
50011;BME280;35899;50.352;19.390;2023-03-18T03:20:43;97892.92;;;-0.68;65.89
50011;BME280;35899;50.352;19.390;2023-03-18T03:23:10;97893.13;;;-0.69;65.88
50011;BME280;35899;50.352;19.390;2023-03-18T03:25:37;97889.59;;;-0.70;65.96
50011;BME280;35899;50.352;19.390;2023-03-18T03:28:05;97890.63;;;-0.71;66.26
50011;BME280;35899;50.352;19.390;2023-03-18T03:30:32;97893.88;;;-0.72;66.29
50011;BME280;35899;50.352;19.390;2023-03-18T03:32:59;97893.73;;;-0.73;66.06
50011;BME280;35899;50.352;19.390;2023-03-18T03:35:26;97898.67;;;-0.73;66.20
50011;BME280;35899;50.352;19.390;2023-03-18T03:37:52;97899.36;;;-0.74;66.41
50011;BME280;35899;50.352;19.390;2023-03-18T03:40:19;97897.85;;;-0.74;66.60
50011;BME280;35899;50.352;19.390;2023-03-18T03:42:46;97898.23;;;-0.76;66.61
50011;BME280;35899;50.352;19.390;2023-03-18T03:45:14;97897.08;;;-0.77;66.74
50011;BME280;35899;50.352;19.390;2023-03-18T03:47:42;97892.69;;;-0.79;66.66
50011;BME280;35899;50.352;19.390;2023-03-18T03:50:09;97895.27;;;-0.81;66.51
50011;BME280;35899;50.352;19.390;2023-03-18T03:52:36;97892.75;;;-0.81;66.64
50011;BME280;35899;50.352;19.390;2023-03-18T03:55:02;97893.65;;;-0.83;66.52
50011;BME280;35899;50.352;19.390;2023-03-18T03:57:30;97898.97;;;-0.85;66.69
50011;BME280;35899;50.352;19.390;2023-03-18T03:59:56;97902.23;;;-0.87;67.00
50011;BME280;35899;50.352;19.390;2023-03-18T04:02:41;97904.79;;;-0.87;66.95
50011;BME280;35899;50.352;19.390;2023-03-18T04:05:10;97906.33;;;-0.87;67.18
50011;BME280;35899;50.352;19.390;2023-03-18T04:07:37;97900.73;;;-0.88;67.25
50011;BME280;35899;50.352;19.390;2023-03-18T04:10:04;97895.67;;;-0.89;67.14
50011;BME280;35899;50.352;19.390;2023-03-18T04:12:31;97895.73;;;-0.91;67.19
50011;BME280;35899;50.352;19.390;2023-03-18T04:14:59;97896.61;;;-0.93;67.37
50011;BME280;35899;50.352;19.390;2023-03-18T04:17:29;97897.49;;;-0.95;67.61
50011;BME280;35899;50.352;19.390;2023-03-18T04:19:55;97895.49;;;-0.96;67.58
50011;BME280;35899;50.352;19.390;2023-03-18T04:22:26;97898.09;;;-0.98;67.39
50011;BME280;35899;50.352;19.390;2023-03-18T04:24:53;97896.56;;;-0.98;67.55
50011;BME280;35899;50.352;19.390;2023-03-18T04:27:19;97897.58;;;-0.98;67.72
50011;BME280;35899;50.352;19.390;2023-03-18T04:29:47;97895.89;;;-0.99;67.80
50011;BME280;35899;50.352;19.390;2023-03-18T04:32:14;97894.23;;;-1.00;67.91
50011;BME280;35899;50.352;19.390;2023-03-18T04:34:40;97894.43;;;-1.01;67.87
50011;BME280;35899;50.352;19.390;2023-03-18T04:37:07;97894.27;;;-1.02;67.82
50011;BME280;35899;50.352;19.390;2023-03-18T04:39:34;97896.47;;;-1.02;68.10
50011;BME280;35899;50.352;19.390;2023-03-18T04:42:01;97899.20;;;-1.02;68.18
50011;BME280;35899;50.352;19.390;2023-03-18T04:44:28;97900.88;;;-1.02;68.15
50011;BME280;35899;50.352;19.390;2023-03-18T04:46:54;97901.55;;;-1.01;68.17
50011;BME280;35899;50.352;19.390;2023-03-18T04:49:21;97901.01;;;-1.00;68.22
50011;BME280;35899;50.352;19.390;2023-03-18T04:51:48;97902.56;;;-1.00;68.18
50011;BME280;35899;50.352;19.390;2023-03-18T04:54:21;97901.23;;;-1.02;68.43
50011;BME280;35899;50.352;19.390;2023-03-18T04:56:49;97898.70;;;-1.03;68.38
50011;BME280;35899;50.352;19.390;2023-03-18T04:59:15;97902.27;;;-1.02;68.33
50011;BME280;35899;50.352;19.390;2023-03-18T05:01:42;97899.48;;;-1.00;68.48
50011;BME280;35899;50.352;19.390;2023-03-18T05:04:09;97900.63;;;-0.97;68.44
50011;BME280;35899;50.352;19.390;2023-03-18T05:06:42;97900.71;;;-0.94;68.31
50011;BME280;35899;50.352;19.390;2023-03-18T05:09:10;97903.71;;;-0.91;68.29
50011;BME280;35899;50.352;19.390;2023-03-18T05:11:37;97905.80;;;-0.88;68.35
50011;BME280;35899;50.352;19.390;2023-03-18T05:14:19;97906.70;;;-0.82;68.41
50011;BME280;35899;50.352;19.390;2023-03-18T05:16:46;97913.30;;;-0.74;68.49
50011;BME280;35899;50.352;19.390;2023-03-18T05:19:13;97916.38;;;-0.67;68.45
50011;BME280;35899;50.352;19.390;2023-03-18T05:21:45;97915.13;;;-0.59;68.24
50011;BME280;35899;50.352;19.390;2023-03-18T05:24:12;97916.08;;;-0.50;68.36
50011;BME280;35899;50.352;19.390;2023-03-18T05:26:39;97919.92;;;-0.41;68.41
50011;BME280;35899;50.352;19.390;2023-03-18T05:29:06;97922.90;;;-0.37;68.24
50011;BME280;35899;50.352;19.390;2023-03-18T05:31:52;97919.49;;;-0.37;67.96
50011;BME280;35899;50.352;19.390;2023-03-18T05:34:18;97922.56;;;-0.37;67.93
50011;BME280;35899;50.352;19.390;2023-03-18T05:36:45;97924.46;;;-0.32;68.12
50011;BME280;35899;50.352;19.390;2023-03-18T05:39:11;97923.45;;;-0.19;67.95
50011;BME280;35899;50.352;19.390;2023-03-18T05:41:38;97924.91;;;-0.05;68.00
50011;BME280;35899;50.352;19.390;2023-03-18T05:44:07;97919.79;;;0.09;67.94
50011;BME280;35899;50.352;19.390;2023-03-18T05:46:37;97923.52;;;0.21;67.85
50011;BME280;35899;50.352;19.390;2023-03-18T05:49:14;97922.59;;;0.30;67.74
50011;BME280;35899;50.352;19.390;2023-03-18T05:52:01;97924.64;;;0.41;67.51
50011;BME280;35899;50.352;19.390;2023-03-18T05:54:40;97926.16;;;0.53;67.53
50011;BME280;35899;50.352;19.390;2023-03-18T05:57:08;97927.36;;;0.65;67.58
50011;BME280;35899;50.352;19.390;2023-03-18T05:59:34;97927.65;;;0.78;67.59
50011;BME280;35899;50.352;19.390;2023-03-18T06:02:01;97927.07;;;0.91;67.52
50011;BME280;35899;50.352;19.390;2023-03-18T06:04:28;97924.48;;;1.03;67.54
50011;BME280;35899;50.352;19.390;2023-03-18T06:06:55;97930.50;;;1.11;67.30
50011;BME280;35899;50.352;19.390;2023-03-18T06:09:22;97930.56;;;1.21;67.26
50011;BME280;35899;50.352;19.390;2023-03-18T06:11:48;97930.69;;;1.32;67.39
50011;BME280;35899;50.352;19.390;2023-03-18T06:14:15;97934.23;;;1.44;67.32
50011;BME280;35899;50.352;19.390;2023-03-18T06:16:41;97934.45;;;1.58;67.17
50011;BME280;35899;50.352;19.390;2023-03-18T06:19:08;97931.83;;;1.70;67.15
50011;BME280;35899;50.352;19.390;2023-03-18T06:21:35;97930.14;;;1.79;67.05
50011;BME280;35899;50.352;19.390;2023-03-18T06:24:02;97927.66;;;1.87;66.81
50011;BME280;35899;50.352;19.390;2023-03-18T06:26:30;97928.74;;;1.95;66.80
50011;BME280;35899;50.352;19.390;2023-03-18T06:28:57;97929.14;;;2.03;66.66
50011;BME280;35899;50.352;19.390;2023-03-18T06:31:24;97927.23;;;2.09;66.36
50011;BME280;35899;50.352;19.390;2023-03-18T06:33:51;97928.25;;;2.18;66.47
50011;BME280;35899;50.352;19.390;2023-03-18T06:36:17;97930.46;;;2.28;66.36
50011;BME280;35899;50.352;19.390;2023-03-18T06:38:46;97931.79;;;2.38;66.41
50011;BME280;35899;50.352;19.390;2023-03-18T06:41:13;97938.38;;;2.49;66.64
50011;BME280;35899;50.352;19.390;2023-03-18T06:43:48;97937.55;;;2.58;66.22
50011;BME280;35899;50.352;19.390;2023-03-18T06:46:16;97938.51;;;2.64;65.96
50011;BME280;35899;50.352;19.390;2023-03-18T06:48:43;97940.77;;;2.72;65.91
50011;BME280;35899;50.352;19.390;2023-03-18T06:51:09;97939.72;;;2.81;65.78
50011;BME280;35899;50.352;19.390;2023-03-18T06:53:38;97947.82;;;2.93;65.72
50011;BME280;35899;50.352;19.390;2023-03-18T06:56:04;97944.90;;;3.06;65.48
50011;BME280;35899;50.352;19.390;2023-03-18T06:58:36;97943.02;;;3.20;65.39
50011;BME280;35899;50.352;19.390;2023-03-18T07:01:05;97945.05;;;3.33;65.30
50011;BME280;35899;50.352;19.390;2023-03-18T07:03:36;97945.44;;;3.44;65.02
50011;BME280;35899;50.352;19.390;2023-03-18T07:06:03;97949.16;;;3.58;65.21
50011;BME280;35899;50.352;19.390;2023-03-18T07:08:30;97951.71;;;3.70;64.91
50011;BME280;35899;50.352;19.390;2023-03-18T07:10:56;97953.95;;;3.82;64.67
50011;BME280;35899;50.352;19.390;2023-03-18T07:13:24;97959.78;;;3.94;64.61
50011;BME280;35899;50.352;19.390;2023-03-18T07:15:50;97960.12;;;4.06;64.36
50011;BME280;35899;50.352;19.390;2023-03-18T07:18:17;97962.34;;;4.18;64.53
50011;BME280;35899;50.352;19.390;2023-03-18T07:20:45;97968.98;;;4.27;63.98
50011;BME280;35899;50.352;19.390;2023-03-18T07:23:11;97969.39;;;4.38;64.02
50011;BME280;35899;50.352;19.390;2023-03-18T07:25:38;97972.59;;;4.46;63.81
50011;BME280;35899;50.352;19.390;2023-03-18T07:28:04;97973.40;;;4.55;63.78
50011;BME280;35899;50.352;19.390;2023-03-18T07:30:30;97978.45;;;4.64;63.76
50011;BME280;35899;50.352;19.390;2023-03-18T07:33:00;97977.17;;;4.74;63.43
50011;BME280;35899;50.352;19.390;2023-03-18T07:35:26;97983.48;;;4.82;63.11
50011;BME280;35899;50.352;19.390;2023-03-18T07:37:53;97979.73;;;4.93;63.24
50011;BME280;35899;50.352;19.390;2023-03-18T07:40:19;97980.38;;;5.04;63.40
50011;BME280;35899;50.352;19.390;2023-03-18T07:42:46;97981.92;;;5.19;63.38
50011;BME280;35899;50.352;19.390;2023-03-18T07:45:12;97983.09;;;5.34;62.73
50011;BME280;35899;50.352;19.390;2023-03-18T07:47:38;97980.96;;;5.46;62.32
50011;BME280;35899;50.352;19.390;2023-03-18T07:50:05;97975.92;;;5.59;62.27
50011;BME280;35899;50.352;19.390;2023-03-18T07:52:31;97974.98;;;5.70;62.18
50011;BME280;35899;50.352;19.390;2023-03-18T07:54:58;97971.81;;;5.79;61.27
50011;BME280;35899;50.352;19.390;2023-03-18T07:57:24;97969.51;;;5.87;60.32
50011;BME280;35899;50.352;19.390;2023-03-18T07:59:51;97966.58;;;5.98;60.45
50011;BME280;35899;50.352;19.390;2023-03-18T09:33:51;97942.86;;;10.82;41.22
50011;BME280;35899;50.352;19.390;2023-03-18T09:36:19;97938.63;;;10.93;40.48
50011;BME280;35899;50.352;19.390;2023-03-18T09:38:45;97940.27;;;11.02;40.05
50011;BME280;35899;50.352;19.390;2023-03-18T09:41:31;97939.98;;;11.08;39.39
50011;BME280;35899;50.352;19.390;2023-03-18T09:51:56;97940.04;;;12.51;37.52
50011;BME280;35899;50.352;19.390;2023-03-18T09:54:32;97939.80;;;13.01;37.18
50011;BME280;35899;50.352;19.390;2023-03-18T09:57:00;97938.65;;;13.39;34.49
50011;BME280;35899;50.352;19.390;2023-03-18T09:59:37;97933.79;;;13.60;34.14
50011;BME280;35899;50.352;19.390;2023-03-18T10:02:07;97930.09;;;13.93;34.22
50011;BME280;35899;50.352;19.390;2023-03-18T10:05:00;97938.24;;;14.32;33.76
50011;BME280;35899;50.352;19.390;2023-03-18T10:07:30;97932.09;;;14.62;32.91
50011;BME280;35899;50.352;19.390;2023-03-18T10:10:05;97928.77;;;14.94;32.77
50011;BME280;35899;50.352;19.390;2023-03-18T10:12:33;97924.96;;;15.19;31.87
50011;BME280;35899;50.352;19.390;2023-03-18T10:15:12;97923.14;;;15.45;32.51
50011;BME280;35899;50.352;19.390;2023-03-18T10:17:42;97922.02;;;15.71;31.52
50011;BME280;35899;50.352;19.390;2023-03-18T10:20:16;97918.94;;;15.96;31.79
50011;BME280;35899;50.352;19.390;2023-03-18T10:25:37;97921.25;;;16.53;31.79
50011;BME280;35899;50.352;19.390;2023-03-18T10:33:40;97917.52;;;17.61;28.09
50011;BME280;35899;50.352;19.390;2023-03-18T10:35:48;97917.42;;;17.60;28.52
50011;BME280;35899;50.352;19.390;2023-03-18T10:38:32;97914.26;;;17.97;29.07
50011;BME280;35899;50.352;19.390;2023-03-18T10:41:00;97911.23;;;18.31;27.72
50011;BME280;35899;50.352;19.390;2023-03-18T10:43:28;97910.92;;;18.53;27.90
50011;BME280;35899;50.352;19.390;2023-03-18T10:45:59;97908.73;;;18.79;27.23
50011;BME280;35899;50.352;19.390;2023-03-18T10:48:28;97911.55;;;18.94;26.29
50011;BME280;35899;50.352;19.390;2023-03-18T10:56:24;97911.77;;;19.75;26.16
50011;BME280;35899;50.352;19.390;2023-03-18T10:58:51;97905.55;;;19.90;26.65
50011;BME280;35899;50.352;19.390;2023-03-18T11:01:17;97904.05;;;20.42;26.94
50011;BME280;35899;50.352;19.390;2023-03-18T11:03:50;97903.52;;;20.96;26.43
50011;BME280;35899;50.352;19.390;2023-03-18T11:06:27;97904.24;;;21.25;25.31
50011;BME280;35899;50.352;19.390;2023-03-18T11:09:16;97900.56;;;21.42;25.22
50011;BME280;35899;50.352;19.390;2023-03-18T11:11:44;97895.09;;;21.91;25.60
50011;BME280;35899;50.352;19.390;2023-03-18T11:14:15;97892.16;;;22.46;25.52
50011;BME280;35899;50.352;19.390;2023-03-18T11:19:44;97893.92;;;23.83;25.44
50011;BME280;35899;50.352;19.390;2023-03-18T11:22:21;97885.27;;;24.44;24.95
50011;BME280;35899;50.352;19.390;2023-03-18T11:25:00;97885.73;;;25.06;24.71
50011;BME280;35899;50.352;19.390;2023-03-18T11:27:27;97881.46;;;25.26;23.76
50011;BME280;35899;50.352;19.390;2023-03-18T11:29:59;97880.54;;;25.38;23.79
50011;BME280;35899;50.352;19.390;2023-03-18T11:32:30;97877.74;;;25.32;23.46
50011;BME280;35899;50.352;19.390;2023-03-18T11:34:57;97878.65;;;25.46;23.16
50011;BME280;35899;50.352;19.390;2023-03-18T11:37:25;97877.38;;;25.70;22.96
50011;BME280;35899;50.352;19.390;2023-03-18T11:39:52;97876.79;;;25.83;22.15
50011;BME280;35899;50.352;19.390;2023-03-18T11:42:24;97875.90;;;25.74;22.02
50011;BME280;35899;50.352;19.390;2023-03-18T11:44:53;97870.55;;;25.69;21.83
50011;BME280;35899;50.352;19.390;2023-03-18T11:47:21;97866.84;;;25.64;20.84
50011;BME280;35899;50.352;19.390;2023-03-18T11:49:48;97867.60;;;25.27;20.30
50011;BME280;35899;50.352;19.390;2023-03-18T11:55:21;97855.70;;;26.02;20.68
50011;BME280;35899;50.352;19.390;2023-03-18T12:00:34;97853.14;;;27.13;20.73
50011;BME280;35899;50.352;19.390;2023-03-18T12:11:12;97845.36;;;26.79;20.35
50011;BME280;35899;50.352;19.390;2023-03-18T12:21:44;97839.81;;;26.44;20.40
50011;BME280;35899;50.352;19.390;2023-03-18T12:24:28;97834.02;;;26.55;20.21
50011;BME280;35899;50.352;19.390;2023-03-18T12:32:39;97828.36;;;28.08;20.15
50011;BME280;35899;50.352;19.390;2023-03-18T12:40:38;97830.48;;;28.87;18.61
50011;BME280;35899;50.352;19.390;2023-03-18T12:43:17;97836.45;;;28.99;18.52
50011;BME280;35899;50.352;19.390;2023-03-18T12:45:49;97832.20;;;29.06;18.03
50011;BME280;35899;50.352;19.390;2023-03-18T12:48:23;97831.19;;;29.00;17.90
50011;BME280;35899;50.352;19.390;2023-03-18T12:51:09;97828.73;;;29.10;17.71
50011;BME280;35899;50.352;19.390;2023-03-18T12:53:40;97830.08;;;29.28;17.03
50011;BME280;35899;50.352;19.390;2023-03-18T12:56:11;97828.07;;;29.45;17.08
50011;BME280;35899;50.352;19.390;2023-03-18T12:59:02;97830.80;;;29.78;16.48
50011;BME280;35899;50.352;19.390;2023-03-18T13:01:36;97826.70;;;29.87;16.38
50011;BME280;35899;50.352;19.390;2023-03-18T13:04:06;97818.89;;;29.92;16.73
50011;BME280;35899;50.352;19.390;2023-03-18T13:06:50;97822.95;;;30.15;16.56
50011;BME280;35899;50.352;19.390;2023-03-18T13:17:19;97816.90;;;31.82;15.12
50011;BME280;35899;50.352;19.390;2023-03-18T13:19:48;97815.98;;;31.94;16.42
50011;BME280;35899;50.352;19.390;2023-03-18T13:22:24;97813.27;;;32.35;15.42
50011;BME280;35899;50.352;19.390;2023-03-18T13:43:55;97801.41;;;33.27;14.74
50011;BME280;35899;50.352;19.390;2023-03-18T13:46:23;97797.98;;;33.31;14.84
50011;BME280;35899;50.352;19.390;2023-03-18T13:48:54;97797.56;;;33.61;15.10
50011;BME280;35899;50.352;19.390;2023-03-18T13:53:55;97800.48;;;33.00;15.14
50011;BME280;35899;50.352;19.390;2023-03-18T13:56:33;97798.30;;;32.26;14.60
50011;BME280;35899;50.352;19.390;2023-03-18T14:01:56;97796.03;;;29.87;15.70
50011;BME280;35899;50.352;19.390;2023-03-18T14:04:30;97798.27;;;27.87;16.52
50011;BME280;35899;50.352;19.390;2023-03-18T14:07:11;97791.98;;;26.32;17.28
50011;BME280;35899;50.352;19.390;2023-03-18T14:12:44;97791.30;;;23.48;18.36
50011;BME280;35899;50.352;19.390;2023-03-18T14:17:56;97788.05;;;21.54;19.27
50011;BME280;35899;50.352;19.390;2023-03-18T14:20:24;97790.05;;;20.67;19.76
50011;BME280;35899;50.352;19.390;2023-03-18T14:22:52;97789.80;;;20.02;19.97
50011;BME280;35899;50.352;19.390;2023-03-18T14:25:21;97785.95;;;19.44;20.40
50011;BME280;35899;50.352;19.390;2023-03-18T14:27:53;97785.63;;;18.98;20.69
50011;BME280;35899;50.352;19.390;2023-03-18T14:30:42;97782.34;;;18.52;20.82
50011;BME280;35899;50.352;19.390;2023-03-18T14:35:46;97779.31;;;17.88;21.92
50011;BME280;35899;50.352;19.390;2023-03-18T14:38:18;97776.17;;;17.73;22.29
50011;BME280;35899;50.352;19.390;2023-03-18T14:40:46;97776.41;;;17.56;22.79
50011;BME280;35899;50.352;19.390;2023-03-18T14:45:43;97780.11;;;17.29;22.57
50011;BME280;35899;50.352;19.390;2023-03-18T14:48:22;97779.67;;;17.13;22.67
50011;BME280;35899;50.352;19.390;2023-03-18T14:50:50;97779.48;;;16.96;22.71
50011;BME280;35899;50.352;19.390;2023-03-18T14:53:20;97774.05;;;16.74;22.57
50011;BME280;35899;50.352;19.390;2023-03-18T14:55:50;97781.83;;;16.61;22.87
50011;BME280;35899;50.352;19.390;2023-03-18T14:58:18;97781.20;;;16.50;23.03
50011;BME280;35899;50.352;19.390;2023-03-18T15:00:45;97780.69;;;16.42;23.16
50011;BME280;35899;50.352;19.390;2023-03-18T15:03:15;97780.43;;;16.39;23.92
50011;BME280;35899;50.352;19.390;2023-03-18T15:05:42;97780.49;;;16.35;23.82
50011;BME280;35899;50.352;19.390;2023-03-18T15:08:12;97778.56;;;16.24;23.77
50011;BME280;35899;50.352;19.390;2023-03-18T15:10:40;97773.30;;;16.17;24.05
50011;BME280;35899;50.352;19.390;2023-03-18T15:13:11;97777.88;;;16.11;24.22
50011;BME280;35899;50.352;19.390;2023-03-18T15:15:38;97773.42;;;16.07;24.47
50011;BME280;35899;50.352;19.390;2023-03-18T15:20:44;97776.69;;;16.00;24.98
50011;BME280;35899;50.352;19.390;2023-03-18T15:23:13;97778.52;;;15.91;24.57
50011;BME280;35899;50.352;19.390;2023-03-18T15:25:40;97779.79;;;15.78;24.75
50011;BME280;35899;50.352;19.390;2023-03-18T15:28:11;97781.86;;;15.68;25.09
50011;BME280;35899;50.352;19.390;2023-03-18T15:30:39;97779.75;;;15.55;25.00
50011;BME280;35899;50.352;19.390;2023-03-18T15:33:19;97781.23;;;15.39;25.09
50011;BME280;35899;50.352;19.390;2023-03-18T15:35:52;97779.84;;;15.24;25.57
50011;BME280;35899;50.352;19.390;2023-03-18T15:38:19;97778.32;;;15.10;25.63
50011;BME280;35899;50.352;19.390;2023-03-18T15:40:51;97777.60;;;14.97;25.78
50011;BME280;35899;50.352;19.390;2023-03-18T15:45:52;97781.61;;;14.60;26.07
50011;BME280;35899;50.352;19.390;2023-03-18T15:50:53;97782.67;;;14.28;26.45
50011;BME280;35899;50.352;19.390;2023-03-18T15:55:50;97784.57;;;14.08;27.24
50011;BME280;35899;50.352;19.390;2023-03-18T15:58:27;97787.43;;;13.95;27.25
50011;BME280;35899;50.352;19.390;2023-03-18T16:00:54;97784.69;;;13.82;27.64
50011;BME280;35899;50.352;19.390;2023-03-18T16:03:25;97784.48;;;13.68;27.77
50011;BME280;35899;50.352;19.390;2023-03-18T16:05:52;97783.30;;;13.56;28.20
50011;BME280;35899;50.352;19.390;2023-03-18T16:08:19;97791.46;;;13.41;28.42
50011;BME280;35899;50.352;19.390;2023-03-18T16:10:47;97787.92;;;13.27;28.42
50011;BME280;35899;50.352;19.390;2023-03-18T16:13:19;97791.34;;;13.13;28.70
50011;BME280;35899;50.352;19.390;2023-03-18T16:15:46;97795.63;;;12.97;28.96
50011;BME280;35899;50.352;19.390;2023-03-18T16:18:12;97800.94;;;12.84;29.45
50011;BME280;35899;50.352;19.390;2023-03-18T16:20:39;97801.91;;;12.71;29.65
50011;BME280;35899;50.352;19.390;2023-03-18T16:23:06;97804.85;;;12.58;29.77
50011;BME280;35899;50.352;19.390;2023-03-18T16:25:33;97808.44;;;12.45;29.82
50011;BME280;35899;50.352;19.390;2023-03-18T16:27:59;97810.35;;;12.32;29.76
50011;BME280;35899;50.352;19.390;2023-03-18T16:30:27;97817.89;;;12.20;29.93